Time;durP1;ratioP1;P1;durP2;ratioP2;P2;SDS_P1;SDS_P2;PMS_P1;PMS_P2;Temp;Humidity;BMP_temperature;BMP_pressure;BME280_temperature;BME280_humidity;BME280_pressure;Samples;Min_cycle;Max_cycle;Signal;HPM_P1;HPM_P2
2022/05/28 00:01:18;;;;;;;1999.90;999.90;;;11.20;99.90;;;;;;5057958;28;20962;-75
2022/05/28 00:03:45;;;;;;;1999.90;999.90;;;11.30;99.90;;;;;;5057367;28;20413;-75
2022/05/28 00:06:17;;;;;;;1999.90;999.90;;;11.20;99.90;;;;;;5057203;28;20548;-74
2022/05/28 00:08:43;;;;;;;1999.90;999.90;;;11.20;99.90;;;;;;5058249;28;20405;-74
2022/05/28 00:11:31;;;;;;;1999.90;999.90;;;11.10;99.90;;;;;;5057899;28;20406;-74
2022/05/28 00:13:57;;;;;;;1999.90;999.90;;;11.10;99.90;;;;;;5058604;28;20481;-74
2022/05/28 00:16:23;;;;;;;1999.90;999.90;;;11.10;99.90;;;;;;5057313;28;20433;-74
2022/05/28 00:18:49;;;;;;;1999.90;999.90;;;11.20;99.90;;;;;;5057594;28;20453;-75
2022/05/28 00:21:15;;;;;;;1999.90;999.90;;;11.10;99.90;;;;;;5057793;28;20830;-75
2022/05/28 00:23:44;;;;;;;1999.90;999.90;;;11.10;99.90;;;;;;5057641;28;20904;-73
2022/05/28 00:26:10;;;;;;;1999.90;999.90;;;11.10;99.90;;;;;;5056408;28;20446;-73
2022/05/28 00:28:35;;;;;;;1999.90;999.90;;;11.00;99.90;;;;;;5056258;28;20403;-73
2022/05/28 00:31:01;;;;;;;1999.90;999.90;;;11.00;99.90;;;;;;5056244;28;20229;-73
2022/05/28 00:33:27;;;;;;;1999.90;999.90;;;10.90;99.90;;;;;;5055764;28;20178;-74
2022/05/28 00:35:53;;;;;;;1999.90;999.90;;;11.00;99.90;;;;;;5056434;28;20202;-73
2022/05/28 00:38:19;;;;;;;1999.90;999.90;;;10.90;99.90;;;;;;5056428;28;20420;-74
2022/05/28 00:40:49;;;;;;;1999.90;999.90;;;11.00;99.90;;;;;;5055295;28;20402;-74
2022/05/28 00:43:16;;;;;;;1999.90;999.90;;;11.00;99.90;;;;;;5055289;28;20835;-74
2022/05/28 00:45:43;;;;;;;1999.90;999.90;;;11.00;99.90;;;;;;5054831;28;20429;-74
2022/05/28 00:48:11;;;;;;;1999.90;999.90;;;11.00;99.90;;;;;;5055852;28;20398;-74
2022/05/28 00:50:38;;;;;;;1999.90;999.90;;;11.00;99.90;;;;;;5055418;28;20409;-74
2022/05/28 00:53:04;;;;;;;1999.90;999.90;;;11.00;99.90;;;;;;5054906;28;20413;-74
2022/05/28 00:55:34;;;;;;;1999.90;999.90;;;11.00;99.90;;;;;;5054815;28;20444;-74
2022/05/28 00:58:03;;;;;;;1999.90;999.90;;;11.00;99.90;;;;;;5055155;28;20758;-74
2022/05/28 01:00:29;;;;;;;1999.90;999.90;;;10.90;99.90;;;;;;5054840;28;20437;-73
2022/05/28 01:03:12;;;;;;;1999.90;999.90;;;11.00;99.90;;;;;;5054093;28;20752;-74
2022/05/28 01:06:18;;;;;;;1999.90;999.90;;;11.00;99.90;;;;;;5053959;28;20186;-74
2022/05/28 01:08:52;;;;;;;1999.90;999.90;;;11.00;99.90;;;;;;5030816;28;20549;-74
2022/05/28 01:11:45;;;;;;;1999.90;999.90;;;11.00;99.90;;;;;;5054339;28;20423;-74
2022/05/28 01:14:20;;;;;;;1999.90;999.90;;;11.00;99.90;;;;;;5053726;28;20426;-74
2022/05/28 01:16:51;;;;;;;1999.90;999.90;;;11.00;99.90;;;;;;5054009;28;20418;-73
2022/05/28 01:19:43;;;;;;;1999.90;999.90;;;11.10;99.90;;;;;;5053844;28;20414;-74
2022/05/28 01:22:33;;;;;;;1999.90;999.90;;;11.10;99.90;;;;;;5053259;28;20456;-73
2022/05/28 01:25:07;;;;;;;1999.90;999.90;;;11.10;99.90;;;;;;5053721;28;20482;-73
2022/05/28 01:27:42;;;;;;;1999.90;999.90;;;11.20;99.90;;;;;;5054102;28;20810;-73
2022/05/28 01:30:12;;;;;;;1999.90;999.90;;;11.10;99.90;;;;;;5053951;28;20915;-74
2022/05/28 01:32:38;;;;;;;1999.90;999.90;;;11.10;99.90;;;;;;5054230;28;20398;-73
2022/05/28 01:35:09;;;;;;;1999.90;999.90;;;11.10;99.90;;;;;;5054012;28;20772;-73
2022/05/28 01:37:37;;;;;;;1999.90;999.90;;;11.00;99.90;;;;;;5054164;28;20435;-74
2022/05/28 01:40:06;;;;;;;1999.90;999.90;;;11.00;99.90;;;;;;5054445;28;20779;-73
2022/05/28 01:42:33;;;;;;;1999.90;999.90;;;11.10;99.90;;;;;;5053693;28;20446;-73
2022/05/28 01:45:00;;;;;;;1999.90;999.90;;;11.20;99.90;;;;;;5053902;28;20397;-74
2022/05/28 01:47:28;;;;;;;1999.90;999.90;;;11.20;99.90;;;;;;5054344;28;20419;-73
2022/05/28 01:49:54;;;;;;;1999.90;999.90;;;11.20;99.90;;;;;;5054339;28;20402;-74
2022/05/28 01:52:21;;;;;;;1999.90;999.90;;;11.10;99.90;;;;;;5053706;28;20484;-74
2022/05/28 01:54:49;;;;;;;1999.90;999.90;;;11.20;99.90;;;;;;5053880;28;20420;-73
2022/05/28 01:57:15;;;;;;;1999.90;999.90;;;11.20;99.90;;;;;;5054300;28;20430;-73
2022/05/28 01:59:41;;;;;;;1999.90;999.90;;;11.20;99.90;;;;;;5053723;28;20467;-73
2022/05/28 02:02:11;;;;;;;1999.90;999.90;;;11.20;99.90;;;;;;5053850;28;20445;-73
2022/05/28 02:04:38;;;;;;;1999.90;999.90;;;11.20;99.90;;;;;;5053928;28;20411;-74
2022/05/28 02:07:05;;;;;;;1999.90;999.90;;;11.20;99.90;;;;;;5053390;28;20419;-73
2022/05/28 02:09:37;;;;;;;1999.90;999.90;;;11.20;99.90;;;;;;5053626;28;20838;-73
2022/05/28 02:12:08;;;;;;;1999.90;999.90;;;11.20;99.90;;;;;;5054785;28;20791;-73
2022/05/28 02:14:37;;;;;;;1999.90;999.90;;;11.10;99.90;;;;;;5053881;28;20444;-73
2022/05/28 02:17:08;;;;;;;1999.90;999.90;;;11.10;99.90;;;;;;5055162;28;20457;-74
2022/05/28 02:19:43;;;;;;;1999.90;999.90;;;11.20;99.90;;;;;;5053625;28;20915;-73
2022/05/28 02:22:34;;;;;;;1999.90;999.90;;;11.20;99.90;;;;;;5054363;28;20453;-73
2022/05/28 02:25:07;;;;;;;1999.90;999.90;;;11.20;99.90;;;;;;5053804;28;20798;-73
2022/05/28 02:27:35;;;;;;;1999.90;999.90;;;11.10;99.90;;;;;;5054800;28;20442;-74
2022/05/28 02:30:02;;;;;;;1999.90;999.90;;;11.20;99.90;;;;;;5054104;28;20402;-73
2022/05/28 02:32:27;;;;;;;1999.90;999.90;;;11.10;99.90;;;;;;5053940;28;20402;-74
2022/05/28 02:34:53;;;;;;;1999.90;999.90;;;11.20;99.90;;;;;;5054007;28;20401;-73
2022/05/28 02:37:23;;;;;;;1999.90;999.90;;;11.20;99.90;;;;;;5054038;28;20195;-73
2022/05/28 02:39:48;;;;;;;1999.90;999.90;;;11.20;99.90;;;;;;5053268;28;20174;-73
2022/05/28 02:42:14;;;;;;;1999.90;999.90;;;11.20;99.90;;;;;;5053563;28;20455;-74
2022/05/28 02:44:40;;;;;;;1999.90;999.90;;;11.20;99.90;;;;;;5053933;28;20906;-73
2022/05/28 02:47:06;;;;;;;1999.90;999.90;;;11.20;99.90;;;;;;5053839;28;20180;-73
2022/05/28 02:49:32;;;;;;;1999.90;999.90;;;11.20;99.90;;;;;;5053969;28;20245;-74
2022/05/28 02:52:03;;;;;;;1999.90;999.90;;;11.20;99.90;;;;;;5054311;28;20980;-73
2022/05/28 02:54:29;;;;;;;1999.90;999.90;;;11.30;99.90;;;;;;5053044;28;20410;-74
2022/05/28 02:56:55;;;;;;;1999.90;999.90;;;11.30;99.90;;;;;;5053978;28;20433;-73
2022/05/28 02:59:21;;;;;;;1999.90;999.90;;;11.30;99.90;;;;;;5052377;28;20764;-74
2022/05/28 03:01:46;;;;;;;1999.90;999.90;;;11.30;99.90;;;;;;5052659;28;20221;-74
2022/05/28 03:04:12;;;;;;;1999.90;999.90;;;11.30;99.90;;;;;;5052146;28;20912;-74
2022/05/28 03:06:38;;;;;;;1999.90;999.90;;;11.30;99.90;;;;;;5051925;28;20187;-73
2022/05/28 03:09:08;;;;;;;1999.90;999.90;;;11.40;99.90;;;;;;5053046;28;20187;-74
2022/05/28 03:11:35;;;;;;;1999.90;999.90;;;11.40;99.90;;;;;;5052857;28;20179;-73
2022/05/28 03:14:01;;;;;;;1999.90;999.90;;;11.40;99.90;;;;;;5052033;28;20417;-73
2022/05/28 03:16:26;;;;;;;1999.90;999.90;;;11.40;99.90;;;;;;5052617;28;20431;-73
2022/05/28 03:18:52;;;;;;;1999.90;999.90;;;11.40;99.90;;;;;;5054975;28;20186;-73
2022/05/28 03:21:18;;;;;;;1999.90;999.90;;;11.40;99.90;;;;;;5056018;28;20297;-73
2022/05/28 03:23:47;;;;;;;1999.90;999.90;;;11.40;99.90;;;;;;5055972;28;20213;-73
2022/05/28 03:26:21;;;;;;;1999.90;999.90;;;11.40;99.90;;;;;;5056074;28;20199;-74
2022/05/28 03:28:51;;;;;;;1999.90;999.90;;;11.40;99.90;;;;;;5039242;28;20938;-75
2022/05/28 03:31:18;;;;;;;1999.90;999.90;;;11.40;99.90;;;;;;5038478;28;20797;-73
2022/05/28 03:33:43;;;;;;;1999.90;999.90;;;11.50;99.90;;;;;;5057200;28;20424;-75
2022/05/28 03:36:09;;;;;;;1999.90;999.90;;;11.60;99.90;;;;;;5056304;28;20430;-74
2022/05/28 03:38:35;;;;;;;1999.90;999.90;;;11.60;99.90;;;;;;5039401;28;20172;-74
2022/05/28 03:41:02;;;;;;;1999.90;999.90;;;11.50;99.90;;;;;;5056483;28;20452;-74
2022/05/28 03:43:28;;;;;;;1999.90;999.90;;;11.50;99.90;;;;;;5039343;28;20786;-74
2022/05/28 03:45:54;;;;;;;1999.90;999.90;;;11.50;99.90;;;;;;5056306;28;20418;-74
2022/05/28 03:48:20;;;;;;;1999.90;999.90;;;11.40;99.90;;;;;;5056567;28;20367;-74
2022/05/28 03:50:46;;;;;;;1999.90;999.90;;;11.40;99.90;;;;;;5057130;28;20918;-74
2022/05/28 03:53:13;;;;;;;1999.90;999.90;;;11.50;99.90;;;;;;5038919;28;20421;-74
2022/05/28 03:55:39;;;;;;;1999.90;999.90;;;11.40;99.90;;;;;;5056135;28;20739;-74
2022/05/28 03:58:06;;;;;;;1999.90;999.90;;;11.20;99.90;;;;;;5057068;28;20452;-74
2022/05/28 04:00:32;;;;;;;1999.90;999.90;;;11.20;99.90;;;;;;5038327;28;20453;-73
2022/05/28 04:02:59;;;;;;;1999.90;999.90;;;11.20;99.90;;;;;;5056655;28;20815;-74
2022/05/28 04:05:24;;;;;;;1999.90;999.90;;;11.10;99.90;;;;;;5056302;28;20756;-73
2022/05/28 04:07:50;;;;;;;1999.90;999.90;;;11.10;99.90;;;;;;5055981;28;20440;-73
2022/05/28 04:10:16;;;;;;;1999.90;999.90;;;11.10;99.90;;;;;;5037527;28;20417;-73
2022/05/28 04:12:42;;;;;;;1999.90;999.90;;;11.10;99.90;;;;;;5056028;28;20221;-73
2022/05/28 04:15:10;;;;;;;1999.90;999.90;;;11.10;99.90;;;;;;5056301;28;20808;-74
2022/05/28 04:17:35;;;;;;;1999.90;999.90;;;11.10;99.90;;;;;;5055781;28;20191;-73
2022/05/28 04:20:01;;;;;;;1999.90;999.90;;;11.20;99.90;;;;;;5056905;28;20418;-74
2022/05/28 04:22:27;;;;;;;1999.90;999.90;;;11.20;99.90;;;;;;5055910;28;20195;-73
2022/05/28 04:24:52;;;;;;;1999.90;999.90;;;11.20;99.90;;;;;;5055928;28;20172;-73
2022/05/28 04:27:18;;;;;;;1999.90;999.90;;;11.20;99.90;;;;;;5055595;28;20310;-73
2022/05/28 04:29:43;;;;;;;1999.90;999.90;;;11.20;99.90;;;;;;5053772;28;20171;-74
2022/05/28 04:32:09;;;;;;;1999.90;999.90;;;11.20;99.90;;;;;;5055453;28;20218;-73
2022/05/28 04:34:35;;;;;;;1999.90;999.90;;;11.20;99.90;;;;;;5054674;28;20602;-73
2022/05/28 04:37:02;;;;;;;1999.90;999.90;;;11.20;99.90;;;;;;5055203;28;20198;-73
2022/05/28 04:39:27;;;;;;;1999.90;999.90;;;11.30;99.90;;;;;;5055290;28;20175;-73
2022/05/28 04:41:53;;;;;;;1999.90;999.90;;;11.30;99.90;;;;;;5055895;28;20487;-73
2022/05/28 04:44:18;;;;;;;1999.90;999.90;;;11.30;99.90;;;;;;5055117;28;20226;-74
2022/05/28 04:46:44;;;;;;;1999.90;999.90;;;11.30;99.90;;;;;;5056058;28;20199;-74
2022/05/28 04:49:10;;;;;;;1999.90;999.90;;;11.30;99.90;;;;;;5055995;28;20225;-73
2022/05/28 04:51:35;;;;;;;1999.90;999.90;;;11.30;99.90;;;;;;5037185;28;20175;-74
2022/05/28 04:54:01;;;;;;;1999.90;999.90;;;11.40;99.90;;;;;;5054581;28;20717;-74
2022/05/28 04:56:27;;;;;;;1999.90;999.90;;;11.40;99.90;;;;;;5055032;28;20222;-74
2022/05/28 04:58:53;;;;;;;1999.90;999.90;;;11.50;99.90;;;;;;5055068;28;20410;-73
2022/05/28 05:01:20;;;;;;;1999.90;999.90;;;11.60;99.90;;;;;;5055056;28;20201;-74
2022/05/28 05:03:46;;;;;;;1999.90;999.90;;;11.60;99.90;;;;;;5055196;28;20411;-74
2022/05/28 05:06:11;;;;;;;1999.90;999.90;;;11.70;99.90;;;;;;5054585;28;20433;-74
2022/05/28 05:08:37;;;;;;;1999.90;999.90;;;11.80;99.90;;;;;;5055399;28;20171;-74
2022/05/28 05:11:03;;;;;;;1999.90;999.90;;;11.80;99.90;;;;;;5054859;28;20191;-74
2022/05/28 05:13:29;;;;;;;1999.90;999.90;;;11.70;99.90;;;;;;5054822;28;20176;-73
2022/05/28 05:15:55;;;;;;;1999.90;999.90;;;11.80;99.90;;;;;;5054496;28;20195;-73
2022/05/28 05:18:21;;;;;;;1999.90;999.90;;;11.80;99.90;;;;;;5054609;28;20463;-73
2022/05/28 05:20:47;;;;;;;1999.90;999.90;;;11.80;99.90;;;;;;5054051;28;20412;-73
2022/05/28 05:23:13;;;;;;;1999.90;999.90;;;11.90;99.90;;;;;;5054361;28;20538;-73
2022/05/28 05:25:39;;;;;;;1999.90;999.90;;;12.00;99.90;;;;;;5054142;28;20427;-73
2022/05/28 05:28:05;;;;;;;1999.90;999.90;;;12.10;99.90;;;;;;5054573;28;20171;-73
2022/05/28 05:30:30;;;;;;;1999.90;999.90;;;12.10;99.90;;;;;;5054166;28;20764;-73
2022/05/28 05:32:56;;;;;;;1999.90;999.90;;;12.10;99.90;;;;;;5054143;28;20421;-73
2022/05/28 05:35:22;;;;;;;1999.90;999.90;;;12.20;99.90;;;;;;5053903;28;20215;-73
2022/05/28 05:37:47;;;;;;;1999.90;999.90;;;12.20;99.90;;;;;;5054109;28;20252;-73
2022/05/28 05:40:13;;;;;;;1999.90;999.90;;;12.30;99.90;;;;;;5054153;28;20410;-73
2022/05/28 05:42:39;;;;;;;1999.90;999.90;;;12.30;99.90;;;;;;5054052;28;20203;-73
2022/05/28 05:45:05;;;;;;;1999.90;999.90;;;12.30;99.90;;;;;;5053312;28;20398;-73
2022/05/28 05:47:32;;;;;;;1999.90;999.90;;;12.30;99.90;;;;;;5053910;28;20203;-73
2022/05/28 05:49:57;;;;;;;1999.90;999.90;;;12.40;99.90;;;;;;5054489;28;20922;-73
2022/05/28 05:52:23;;;;;;;1999.90;999.90;;;12.40;99.90;;;;;;5054142;28;20418;-73
2022/05/28 05:54:48;;;;;;;1999.90;999.90;;;12.40;99.90;;;;;;5053763;28;20533;-73
2022/05/28 05:57:14;;;;;;;1999.90;999.90;;;12.50;99.90;;;;;;5054151;28;20668;-73
2022/05/28 05:59:39;;;;;;;1999.90;999.90;;;12.50;99.90;;;;;;5054355;28;20172;-73
2022/05/28 06:02:06;;;;;;;1999.90;999.90;;;12.50;99.90;;;;;;5053957;28;20196;-73
2022/05/28 06:04:31;;;;;;;1999.90;999.90;;;12.50;99.90;;;;;;5053793;28;20174;-73
2022/05/28 06:06:57;;;;;;;1999.90;999.90;;;12.50;99.90;;;;;;5054552;28;20427;-73
2022/05/28 06:09:22;;;;;;;1999.90;999.90;;;12.60;99.90;;;;;;5054486;28;20160;-73
2022/05/28 06:11:48;;;;;;;1999.90;999.90;;;12.60;99.90;;;;;;5054193;28;20171;-73
2022/05/28 06:14:14;;;;;;;1999.90;999.90;;;12.60;99.90;;;;;;5054073;28;20172;-73
2022/05/28 06:16:39;;;;;;;1999.90;999.90;;;12.60;99.90;;;;;;5054440;28;20691;-73
2022/05/28 06:19:06;;;;;;;1999.90;999.90;;;12.80;99.90;;;;;;5054330;28;20172;-73
2022/05/28 06:21:31;;;;;;;1999.90;999.90;;;12.80;99.90;;;;;;5054521;28;20187;-73
2022/05/28 06:24:00;;;;;;;1999.90;999.90;;;12.70;99.90;;;;;;5054416;28;20766;-73
2022/05/28 06:26:26;;;;;;;1999.90;999.90;;;12.70;99.90;;;;;;5035875;28;20292;-73
2022/05/28 06:28:52;;;;;;;1999.90;999.90;;;12.80;99.90;;;;;;5053653;28;20429;-73
2022/05/28 06:31:18;;;;;;;1999.90;999.90;;;12.90;99.90;;;;;;5053930;28;20634;-73
2022/05/28 06:33:44;;;;;;;1999.90;999.90;;;12.90;99.90;;;;;;5053552;28;20422;-73
2022/05/28 06:36:12;;;;;;;1999.90;999.90;;;13.00;99.90;;;;;;5053234;28;20622;-73
2022/05/28 06:38:38;;;;;;;1999.90;999.90;;;13.10;99.90;;;;;;5053681;28;20406;-73
2022/05/28 06:41:04;;;;;;;1999.90;999.90;;;13.10;99.90;;;;;;5053494;28;20473;-73
2022/05/28 06:43:30;;;;;;;1999.90;999.90;;;13.20;99.90;;;;;;5053222;28;20404;-73
2022/05/28 06:45:56;;;;;;;1999.90;999.90;;;13.30;99.90;;;;;;5052795;28;20423;-72
2022/05/28 06:48:21;;;;;;;1999.90;999.90;;;13.30;99.90;;;;;;5053952;28;20429;-73
2022/05/28 06:51:03;;;;;;;1999.90;999.90;;;13.20;99.90;;;;;;5053395;28;20724;-73
2022/05/28 06:53:40;;;;;;;1999.90;999.90;;;13.30;99.90;;;;;;5055681;28;20167;-74
2022/05/28 06:56:07;;;;;;;1999.90;999.90;;;13.40;99.90;;;;;;5040224;28;20448;-74
2022/05/28 06:58:33;;;;;;;1999.90;999.90;;;13.50;99.90;;;;;;5058969;28;20402;-74
2022/05/28 07:00:59;;;;;;;1999.90;999.90;;;13.50;99.90;;;;;;5040118;28;20424;-74
2022/05/28 07:03:27;;;;;;;1999.90;999.90;;;13.50;99.90;;;;;;5039504;28;20475;-74
2022/05/28 07:05:54;;;;;;;1999.90;999.90;;;13.50;99.90;;;;;;5058013;28;20434;-74
2022/05/28 07:08:21;;;;;;;1999.90;999.90;;;13.60;99.90;;;;;;5023645;28;20440;-73
2022/05/28 07:10:50;;;;;;;1999.90;999.90;;;13.60;99.90;;;;;;5057200;28;20414;-74
2022/05/28 07:13:17;;;;;;;1999.90;999.90;;;13.70;99.90;;;;;;5024365;28;20415;-74
2022/05/28 07:15:43;;;;;;;1999.90;999.90;;;13.50;99.90;;;;;;5039833;28;20434;-74
2022/05/28 07:18:09;;;;;;;1999.90;999.90;;;13.40;99.90;;;;;;5040485;28;20436;-74
2022/05/28 07:20:35;;;;;;;1999.90;999.90;;;13.20;99.90;;;;;;5038041;28;20171;-74
2022/05/28 07:23:23;;;;;;;1999.90;999.90;;;13.40;99.90;;;;;;5055326;28;20462;-74
2022/05/28 07:25:53;;;;;;;1999.90;999.90;;;13.60;99.90;;;;;;5054944;28;20863;-74
2022/05/28 07:28:24;;;;;;;1999.90;999.90;;;14.00;99.90;;;;;;5055365;28;20460;-74
2022/05/28 07:30:51;;;;;;;1999.90;999.90;;;14.30;99.90;;;;;;5055252;28;20412;-74
2022/05/28 07:33:17;;;;;;;1999.90;999.90;;;14.60;99.90;;;;;;5055376;28;20406;-74
2022/05/28 07:35:43;;;;;;;1999.90;999.90;;;14.70;99.90;;;;;;5054805;28;20432;-74
2022/05/28 07:38:09;;;;;;;1999.90;999.90;;;14.70;99.90;;;;;;5054924;28;20418;-74
2022/05/28 07:40:34;;;;;;;1999.90;999.90;;;14.80;99.90;;;;;;5055168;28;20252;-73
2022/05/28 07:43:00;;;;;;;1999.90;999.90;;;14.90;99.90;;;;;;5054987;28;20225;-74
2022/05/28 07:45:26;;;;;;;1999.90;999.90;;;14.80;99.90;;;;;;5054637;28;20183;-73
2022/05/28 07:47:51;;;;;;;1999.90;999.90;;;14.90;99.90;;;;;;5054985;28;20399;-74
2022/05/28 07:50:17;;;;;;;1999.90;999.90;;;15.00;99.90;;;;;;5054927;28;20225;-73
2022/05/28 07:52:44;;;;;;;1999.90;999.90;;;15.00;99.90;;;;;;5055581;28;20206;-72
2022/05/28 07:55:12;;;;;;;1999.90;999.90;;;15.00;99.90;;;;;;5055270;28;20168;-73
2022/05/28 07:57:37;;;;;;;1999.90;999.90;;;14.80;99.90;;;;;;5055112;28;20487;-74
2022/05/28 08:00:04;;;;;;;1999.90;999.90;;;14.60;99.90;;;;;;5054673;28;20411;-74
2022/05/28 08:02:30;;;;;;;1999.90;999.90;;;14.60;99.90;;;;;;5054480;28;20350;-74
2022/05/28 08:04:55;;;;;;;1999.90;999.90;;;14.70;99.90;;;;;;5053774;28;20470;-74
2022/05/28 08:07:21;;;;;;;1999.90;999.90;;;14.70;99.90;;;;;;5054482;28;20242;-74
2022/05/28 08:09:46;;;;;;;1999.90;999.90;;;14.50;99.90;;;;;;5054490;28;20170;-74
2022/05/28 08:12:12;;;;;;;1999.90;999.90;;;14.40;99.90;;;;;;5054380;28;20690;-74
2022/05/28 08:14:37;;;;;;;1999.90;999.90;;;14.30;99.90;;;;;;5054167;28;20163;-74
2022/05/28 08:17:04;;;;;;;1999.90;999.90;;;14.20;99.90;;;;;;5054175;28;20230;-74
2022/05/28 08:19:31;;;;;;;1999.90;999.90;;;14.30;99.90;;;;;;5054452;28;20185;-74
2022/05/28 08:24:41;;;;;;;1999.90;999.90;;;14.60;99.90;;;;;;5054059;28;20384;-74
2022/05/28 08:27:06;;;;;;;1999.90;999.90;;;14.50;99.90;;;;;;5053991;28;20456;-73
2022/05/28 08:29:32;;;;;;;1999.90;999.90;;;14.50;99.90;;;;;;5054126;28;20168;-74
2022/05/28 08:31:57;;;;;;;1999.90;999.90;;;14.40;99.90;;;;;;5054118;28;20192;-73
2022/05/28 08:34:23;;;;;;;1999.90;999.90;;;14.40;99.90;;;;;;5053827;28;20177;-74
2022/05/28 08:36:49;;;;;;;1999.90;999.90;;;14.50;99.90;;;;;;5053916;28;20183;-74
2022/05/28 08:39:14;;;;;;;1999.90;999.90;;;14.70;99.90;;;;;;5053965;28;20175;-73
2022/05/28 08:41:57;;;;;;;1999.90;999.90;;;14.80;99.90;;;;;;5053709;28;20249;-74
2022/05/28 08:44:26;;;;;;;1999.90;999.90;;;15.00;99.90;;;;;;5053598;28;20411;-74
2022/05/28 08:46:59;;;;;;;1999.90;999.90;;;15.10;99.90;;;;;;5053627;28;20432;-74
2022/05/28 08:49:27;;;;;;;1999.90;999.90;;;15.30;99.90;;;;;;5053835;28;20394;-74
2022/05/28 08:52:11;;;;;;;1999.90;999.90;;;15.30;99.90;;;;;;5053706;28;20418;-73
2022/05/28 08:54:59;;;;;;;1999.90;999.90;;;15.20;99.90;;;;;;5053459;28;20407;-74
2022/05/28 08:57:58;;;;;;;1999.90;999.90;;;15.10;99.90;;;;;;5055882;28;20426;-74
2022/05/28 09:00:33;;;;;;;1999.90;999.90;;;15.00;99.90;;;;;;5039849;28;20452;-74
2022/05/28 09:03:08;;;;;;;1999.90;999.90;;;15.10;99.90;;;;;;5039114;28;20479;-73
2022/05/28 09:05:43;;;;;;;1999.90;999.90;;;15.30;99.90;;;;;;5056579;28;20410;-75
2022/05/28 09:08:11;;;;;;;1999.90;999.90;;;15.50;99.90;;;;;;5040292;28;20483;-74
2022/05/28 09:10:44;;;;;;;1999.90;999.90;;;15.80;99.90;;;;;;5041525;28;20411;-74
2022/05/28 09:13:39;;;;;;;1999.90;999.90;;;16.00;99.90;;;;;;5059074;28;20392;-74
2022/05/28 09:16:09;;;;;;;1999.90;999.90;;;15.80;99.90;;;;;;5056543;28;20790;-74
2022/05/28 09:18:41;;;;;;;1999.90;999.90;;;15.60;99.90;;;;;;5059787;28;20412;-74
2022/05/28 09:21:13;;;;;;;1999.90;999.90;;;15.40;99.90;;;;;;5040059;28;20462;-74
2022/05/28 09:23:55;;;;;;;1999.90;999.90;;;15.40;99.90;;;;;;5058252;28;20399;-73
2022/05/28 09:26:50;;;;;;;1999.90;999.90;;;15.70;99.90;;;;;;5099160;22;20479;-74
2022/05/28 09:29:44;;;;;;;1999.90;999.90;;;16.10;99.90;;;;;;5073003;28;20532;-74
2022/05/28 09:32:25;;;;;;;1999.90;999.90;;;16.30;99.90;;;;;;5073133;28;20429;-74
2022/05/28 09:34:56;;;;;;;1999.90;999.90;;;16.20;99.90;;;;;;5072665;28;20757;-73
2022/05/28 09:37:44;;;;;;;1999.90;999.90;;;15.90;99.90;;;;;;5072748;28;20427;-74
2022/05/28 09:40:19;;;;;;;1999.90;999.90;;;15.70;99.90;;;;;;5073465;28;20429;-74
2022/05/28 09:43:22;;;;;;;1999.90;999.90;;;15.70;99.90;;;;;;5073210;28;20524;-74
2022/05/28 09:46:12;;;;;;;1999.90;999.90;;;15.60;99.90;;;;;;5072787;28;20399;-74
2022/05/28 09:48:38;;;;;;;1999.90;999.90;;;15.50;99.90;;;;;;5072990;28;20477;-74
2022/05/28 09:51:03;;;;;;;1999.90;999.90;;;15.60;99.90;;;;;;5072763;28;20407;-74
2022/05/28 09:56:23;;;;;;;1999.90;999.90;;;15.90;99.90;;;;;;5072564;28;20755;-74
2022/05/28 09:58:50;;;;;;;1999.90;999.90;;;16.00;99.90;;;;;;5072597;28;20441;-73
2022/05/28 10:01:25;;;;;;;1999.90;999.90;;;16.10;99.90;;;;;;5072319;28;20484;-74
2022/05/28 10:06:47;;;;;;;1999.90;999.90;;;16.50;99.90;;;;;;5072530;28;20419;-73
2022/05/28 10:09:18;;;;;;;1999.90;999.90;;;16.50;99.90;;;;;;5072142;28;20415;-73
2022/05/28 10:11:52;;;;;;;1999.90;999.90;;;16.40;99.90;;;;;;5072276;28;20465;-74
2022/05/28 10:14:18;;;;;;;1999.90;999.90;;;16.60;99.90;;;;;;5071906;28;20414;-75
2022/05/28 10:16:48;;;;;;;1999.90;999.90;;;16.80;99.90;;;;;;5072114;28;20425;-74
2022/05/28 10:19:27;;;;;;;1999.90;999.90;;;16.90;99.90;;;;;;5072093;28;20436;-75
2022/05/28 10:21:55;;;;;;;1999.90;999.90;;;16.60;99.90;;;;;;5072334;28;20456;-74
2022/05/28 10:24:24;;;;;;;1999.90;999.90;;;16.50;99.90;;;;;;5071824;28;20407;-74
2022/05/28 10:26:54;;;;;;;1999.90;999.90;;;16.80;99.90;;;;;;5071833;28;20471;-74
2022/05/28 10:29:30;;;;;;;1999.90;999.90;;;17.10;99.90;;;;;;5072059;28;20407;-75
2022/05/28 10:31:59;;;;;;;1999.90;999.90;;;17.00;99.90;;;;;;5072080;28;20743;-73
2022/05/28 10:34:37;;;;;;;1999.90;999.90;;;16.80;99.90;;;;;;5071639;28;20890;-74
2022/05/28 10:37:09;;;;;;;1999.90;999.90;;;16.60;99.90;;;;;;5071876;28;20432;-73
2022/05/28 10:39:37;;;;;;;1999.90;999.90;;;16.70;99.90;;;;;;5072115;28;20946;-74
2022/05/28 10:42:03;;;;;;;1999.90;999.90;;;16.80;99.90;;;;;;5071777;28;20463;-74
2022/05/28 10:44:29;;;;;;;1999.90;999.90;;;17.10;99.90;;;;;;5071638;28;20400;-73
2022/05/28 10:47:19;;;;;;;1999.90;999.90;;;17.40;99.90;;;;;;5053809;28;20429;-73
2022/05/28 10:50:13;;;;;;;1999.90;999.90;;;17.60;99.90;;;;;;5071901;28;20171;-73
2022/05/28 10:53:12;;;;;;;1999.90;999.90;;;17.80;99.50;;;;;;5071754;28;20394;-74
2022/05/28 10:56:14;;;;;;;1999.90;999.90;;;18.30;99.90;;;;;;5071520;28;20412;-74
2022/05/28 10:58:46;;;;;;;1999.90;999.90;;;18.40;96.50;;;;;;5070442;28;20420;-73
2022/05/28 11:01:33;;;;;;;1999.90;999.90;;;17.90;93.70;;;;;;5071669;28;20454;-74
2022/05/28 11:04:33;;;;;;;1999.90;999.90;;;17.40;99.60;;;;;;5071466;28;20398;-75
2022/05/28 11:07:05;;;;;;;1999.90;999.90;;;17.00;97.60;;;;;;5071508;28;20436;-73
2022/05/28 11:10:02;;;;;;;1999.90;999.90;;;16.70;99.90;;;;;;5071677;28;20784;-74
2022/05/28 11:12:49;;;;;;;1999.90;999.90;;;16.80;99.90;;;;;;5071651;28;20523;-74
2022/05/28 11:15:40;;;;;;;1999.90;999.90;;;17.40;98.70;;;;;;5071246;28;20841;-74
2022/05/28 11:18:21;;;;;;;1999.90;999.90;;;17.90;98.90;;;;;;5071555;28;20470;-74
2022/05/28 11:21:04;;;;;;;1999.90;999.90;;;18.20;91.00;;;;;;5071576;28;20406;-74
2022/05/28 11:24:10;;;;;;;1999.90;999.90;;;18.40;95.10;;;;;;5071488;28;20406;-73
2022/05/28 11:26:54;;;;;;;1999.90;999.90;;;19.00;87.50;;;;;;5037992;28;20832;-73
2022/05/28 11:29:47;;;;;;;1999.90;999.90;;;19.00;92.10;;;;;;5071510;28;20407;-74
2022/05/28 11:32:23;;;;;;;1999.90;999.90;;;18.50;89.70;;;;;;5071371;28;20401;-74
2022/05/28 11:35:15;;;;;;;1999.90;999.90;;;17.90;89.10;;;;;;5071211;28;20465;-73
2022/05/28 11:37:51;;;;;;;1999.90;999.90;;;17.60;90.00;;;;;;5071343;28;20443;-74
2022/05/28 11:40:21;;;;;;;1999.90;999.90;;;17.10;94.60;;;;;;5074612;28;20407;-73
2022/05/28 11:42:51;;;;;;;1999.90;999.90;;;16.80;94.20;;;;;;5074999;28;20449;-73
2022/05/28 11:45:27;;;;;;;1999.90;999.90;;;17.10;94.30;;;;;;5074717;28;20780;-73
2022/05/28 11:47:58;;;;;;;1999.90;999.90;;;17.60;99.90;;;;;;5074961;28;20433;-73
2022/05/28 11:53:43;;;;;;;1999.90;999.90;;;18.70;91.10;;;;;;5075190;28;20442;-75
2022/05/28 11:56:19;;;;;;;1999.90;999.90;;;18.80;81.50;;;;;;5074643;28;20535;-75
2022/05/28 11:58:49;;;;;;;1999.90;999.90;;;18.40;78.60;;;;;;5056864;28;20436;-74
2022/05/28 12:01:27;;;;;;;1999.90;999.90;;;18.30;85.90;;;;;;5074667;28;20969;-75
2022/05/28 12:03:53;;;;;;;1999.90;999.90;;;18.00;84.40;;;;;;5074701;28;20417;-74
2022/05/28 12:06:29;;;;;;;1999.90;999.90;;;18.00;91.70;;;;;;5074381;28;20431;-75
2022/05/28 12:09:00;;;;;;;1999.90;999.90;;;18.90;88.50;;;;;;5073353;28;20811;-74
2022/05/28 12:11:46;;;;;;;1999.90;999.90;;;19.90;79.40;;;;;;5074718;28;20409;-74
2022/05/28 12:14:32;;;;;;;1999.90;999.90;;;20.80;69.70;;;;;;5074389;28;20383;-75
2022/05/28 12:17:01;;;;;;;1999.90;999.90;;;20.70;63.00;;;;;;5074759;28;20858;-74
2022/05/28 12:19:27;;;;;;;1999.90;999.90;;;21.30;59.80;;;;;;5074551;28;20412;-74
2022/05/28 12:21:52;;;;;;;1999.90;999.90;;;20.70;57.50;;;;;;5074337;28;20455;-75
2022/05/28 12:24:18;;;;;;;1999.90;999.90;;;19.90;54.60;;;;;;5074071;28;20177;-74
2022/05/28 12:26:57;;;;;;;1999.90;999.90;;;19.90;53.50;;;;;;5074244;28;20299;-74